Time;durP1;ratioP1;P1;durP2;ratioP2;P2;SDS_P1;SDS_P2;PMS_P1;PMS_P2;Temp;Humidity;BMP_temperature;BMP_pressure;BME280_temperature;BME280_humidity;BME280_pressure;Samples;Min_cycle;Max_cycle;Signal;HPM_P1;HPM_P2
2022/04/18 00:00:14;;;;;;;3.45;2.65;;;;;;;-144.47;100.00;61586.06;6180578;23;20009;-75
2022/04/18 00:02:39;;;;;;;5.80;2.42;;;;;;;-144.47;100.00;61586.06;6181123;23;20413;-74
2022/04/18 00:05:05;;;;;;;4.55;2.70;;;;;;;-144.47;100.00;61586.06;6180933;23;20036;-75
2022/04/18 00:07:30;;;;;;;3.95;2.40;;;;;;;-144.47;100.00;61586.06;6180432;23;20001;-75
2022/04/18 00:09:56;;;;;;;4.18;2.70;;;;;;;-144.47;100.00;61586.06;6180411;23;20009;-74
2022/04/18 00:12:21;;;;;;;5.90;2.80;;;;;;;-144.47;100.00;61586.06;6179951;23;20441;-74
2022/04/18 00:14:47;;;;;;;5.50;2.55;;;;;;;-144.47;100.00;61586.06;6180577;23;20013;-74
2022/04/18 00:17:12;;;;;;;3.65;2.40;;;;;;;-144.47;100.00;61586.06;6180055;23;20009;-75
2022/04/18 00:19:38;;;;;;;3.10;2.63;;;;;;;-144.47;100.00;61586.06;6182641;23;20009;-76
2022/04/18 00:22:05;;;;;;;5.18;2.33;;;;;;;-144.47;100.00;61586.06;6189408;23;20400;-75
2022/04/18 00:24:31;;;;;;;4.63;2.70;;;;;;;-144.47;100.00;61586.06;6188578;23;20327;-74
2022/04/18 00:26:57;;;;;;;5.95;2.70;;;;;;;-144.47;100.00;61586.06;6182636;23;20372;-74
2022/04/18 00:29:22;;;;;;;6.65;2.90;;;;;;;-144.47;100.00;61586.06;6180304;23;20005;-74
2022/04/18 00:31:48;;;;;;;5.10;2.75;;;;;;;-144.47;100.00;61586.06;6154124;23;20013;-74
2022/04/18 00:34:14;;;;;;;7.55;2.72;;;;;;;-144.47;100.00;61586.06;6180723;23;20024;-74
2022/04/18 00:36:41;;;;;;;3.53;2.83;;;;;;;-144.47;100.00;61586.06;6154358;23;20036;-74
2022/04/18 00:39:06;;;;;;;4.85;2.70;;;;;;;-144.47;100.00;61586.06;6181049;23;20330;-74
2022/04/18 00:41:32;;;;;;;6.95;2.47;;;;;;;-144.47;100.00;61586.06;6153651;23;20017;-75
2022/04/18 00:43:57;;;;;;;4.68;2.83;;;;;;;-144.47;100.00;61586.06;6181200;23;20021;-75
2022/04/18 00:46:23;;;;;;;5.38;2.50;;;;;;;-144.47;100.00;61586.06;6180117;23;20005;-75
2022/04/18 00:48:49;;;;;;;4.75;2.78;;;;;;;-144.47;100.00;61586.06;6180677;23;20445;-74
2022/04/18 00:51:17;;;;;;;3.38;2.53;;;;;;;-144.47;100.00;61586.06;6153876;23;20048;-74
2022/04/18 00:53:44;;;;;;;5.00;2.58;;;;;;;-144.47;100.00;61586.06;6180779;23;20387;-74
2022/04/18 00:56:17;;;;;;;3.72;2.58;;;;;;;-144.47;100.00;61586.06;6180513;23;20040;-73
2022/04/18 00:58:44;;;;;;;4.57;2.50;;;;;;;-144.47;100.00;61586.06;6176873;23;20060;-74
2022/04/18 01:01:10;;;;;;;4.00;3.60;;;;;;;-144.47;100.00;61586.06;6177384;23;20008;-74
2022/04/18 01:03:35;;;;;;;6.53;3.45;;;;;;;-144.47;100.00;61586.06;6151028;23;20124;-73
2022/04/18 01:06:03;;;;;;;5.80;2.83;;;;;;;-144.47;100.00;61586.06;6180681;23;20017;-74
2022/04/18 01:08:31;;;;;;;5.57;3.15;;;;;;;-144.47;100.00;61586.06;6153985;23;20116;-74
2022/04/18 01:10:56;;;;;;;6.68;3.00;;;;;;;-144.47;100.00;61586.06;6154176;23;20103;-74
2022/04/18 01:13:48;;;;;;;3.47;2.63;;;;;;;-144.47;100.00;61586.06;6153764;23;20027;-74
2022/04/18 01:16:32;;;;;;;4.97;2.88;;;;;;;-144.47;100.00;61586.06;6154082;23;20013;-74
2022/04/18 01:19:33;;;;;;;3.10;2.80;;;;;;;-144.47;100.00;61586.06;6160589;23;20775;-74
2022/04/18 01:22:32;;;;;;;3.05;2.65;;;;;;;-144.47;100.00;61586.06;6166001;23;20049;-74
2022/04/18 01:30:59;;;;;;;5.60;3.30;;;;;;;-144.47;100.00;61586.06;6156123;23;19913;-76
2022/04/18 01:33:26;;;;;;;5.05;2.83;;;;;;;-144.47;100.00;61586.06;6182476;23;20016;-73
2022/04/18 01:35:52;;;;;;;8.02;2.90;;;;;;;-144.47;100.00;61586.06;6156044;23;20013;-74
2022/04/18 01:38:18;;;;;;;4.47;2.88;;;;;;;-144.47;100.00;61586.06;6155416;23;20012;-74
2022/04/18 01:40:44;;;;;;;6.68;2.92;;;;;;;-144.47;100.00;61586.06;6182352;23;20017;-74
2022/04/18 01:43:09;;;;;;;4.97;2.70;;;;;;;-144.47;100.00;61586.06;6155804;23;20112;-74
2022/04/18 01:45:35;;;;;;;5.75;3.15;;;;;;;-144.47;100.00;61586.06;6155388;23;20042;-74
2022/04/18 01:48:15;;;;;;;8.95;3.00;;;;;;;-144.47;100.00;61586.06;6155321;23;20009;-74
2022/04/18 01:50:42;;;;;;;5.95;3.00;;;;;;;-144.47;100.00;61586.06;6157347;23;20017;-74
2022/04/18 01:53:08;;;;;;;4.72;2.58;;;;;;;-144.47;100.00;61586.06;6158531;23;20334;-74
2022/04/18 01:55:34;;;;;;;5.53;3.10;;;;;;;-144.47;100.00;61586.06;6185127;23;20072;-74
2022/04/18 01:58:00;;;;;;;3.05;2.55;;;;;;;-144.47;100.00;61586.06;6155690;23;20457;-76
2022/04/18 02:00:27;;;;;;;4.05;2.60;;;;;;;-144.47;100.00;61586.06;6154946;23;20032;-75
2022/04/18 02:02:53;;;;;;;4.47;2.65;;;;;;;-144.47;100.00;61586.06;6182055;23;20016;-74
2022/04/18 02:05:19;;;;;;;4.20;2.92;;;;;;;-144.47;100.00;61586.06;6181743;23;20012;-75
2022/04/18 02:07:46;;;;;;;6.05;3.25;;;;;;;-144.47;100.00;61586.06;6155704;23;20013;-74
2022/04/18 02:10:13;;;;;;;5.40;2.88;;;;;;;-144.47;100.00;61586.06;6155374;23;20028;-74
2022/04/18 02:12:38;;;;;;;2.95;2.63;;;;;;;-144.47;100.00;61586.06;6155447;23;20386;-75
2022/04/18 02:15:06;;;;;;;3.17;2.50;;;;;;;-144.47;100.00;61586.06;6155986;23;20013;-75
2022/04/18 02:17:39;;;;;;;4.60;2.83;;;;;;;-144.47;100.00;61586.06;6155422;23;20062;-75
2022/04/18 02:20:06;;;;;;;3.35;2.80;;;;;;;-144.47;100.00;61586.06;6182416;23;20383;-75
2022/04/18 02:22:31;;;;;;;4.07;2.60;;;;;;;-144.47;100.00;61586.06;6181827;23;20013;-74
2022/04/18 02:25:00;;;;;;;4.43;2.95;;;;;;;-144.47;100.00;61586.06;6182096;23;20428;-74
2022/04/18 02:27:26;;;;;;;10.48;4.50;;;;;;;-144.47;100.00;61586.06;6154676;23;20441;-74
2022/04/18 02:29:51;;;;;;;4.60;3.00;;;;;;;-144.47;100.00;61586.06;6155610;23;20001;-74
2022/04/18 02:35:04;;;;;;;3.00;2.30;;;;;;;-144.47;100.00;61586.06;6179994;23;20080;-76
2022/04/18 02:37:30;;;;;;;4.18;3.10;;;;;;;-144.47;100.00;61586.06;6154481;23;20017;-76
2022/04/18 02:39:59;;;;;;;5.53;3.00;;;;;;;-144.47;100.00;61586.06;6181420;23;20441;-75
2022/04/18 02:42:25;;;;;;;5.03;2.60;;;;;;;-144.47;100.00;61586.06;6154800;23;20072;-74
2022/04/18 02:44:50;;;;;;;5.57;2.85;;;;;;;-144.47;100.00;61586.06;6155156;23;20009;-72
2022/04/18 02:47:22;;;;;;;2.97;2.50;;;;;;;-144.47;100.00;61586.06;6154318;23;20117;-74
2022/04/18 02:49:50;;;;;;;6.15;2.70;;;;;;;-144.47;100.00;61586.06;6130937;23;20037;-73
2022/04/18 02:52:17;;;;;;;5.15;2.92;;;;;;;-144.47;100.00;61586.06;6154604;23;20275;-75
2022/04/18 02:54:44;;;;;;;5.55;3.00;;;;;;;-144.47;100.00;61586.06;6155059;23;20369;-74
2022/04/18 02:57:11;;;;;;;5.82;2.75;;;;;;;-144.47;100.00;61586.06;6154174;23;20015;-74
2022/04/18 02:59:39;;;;;;;4.90;2.60;;;;;;;-144.47;100.00;61586.06;6154903;23;20013;-74
2022/04/18 03:02:05;;;;;;;3.67;2.55;;;;;;;-144.47;100.00;61586.06;6154869;23;20029;-74
2022/04/18 03:04:31;;;;;;;5.47;2.40;;;;;;;-144.47;100.00;61586.06;6153998;23;20724;-76
2022/04/18 03:06:57;;;;;;;8.63;2.72;;;;;;;-144.47;100.00;61586.06;6154554;23;20013;-74
2022/04/18 03:09:22;;;;;;;4.10;2.30;;;;;;;-144.47;100.00;61586.06;6154417;23;20342;-74
2022/04/18 03:11:48;;;;;;;4.05;2.58;;;;;;;-144.47;100.00;61586.06;6180939;23;20367;-74
2022/04/18 03:14:14;;;;;;;3.20;2.45;;;;;;;-144.47;100.00;61586.06;6154300;23;20013;-75
2022/04/18 03:16:41;;;;;;;3.20;2.20;;;;;;;-144.47;100.00;61586.06;6154794;23;20123;-74
2022/04/18 03:19:07;;;;;;;3.75;2.80;;;;;;;-144.47;100.00;61586.06;6154251;23;20318;-75
2022/04/18 03:21:37;;;;;;;3.75;2.25;;;;;;;-144.47;100.00;61586.06;6154486;23;20009;-74
2022/04/18 03:24:07;;;;;;;5.28;2.63;;;;;;;-144.47;100.00;61586.06;6154296;23;20290;-74
2022/04/18 03:26:44;;;;;;;3.25;2.50;;;;;;;-144.47;100.00;61586.06;6154141;23;20017;-75
2022/04/18 03:29:13;;;;;;;5.55;2.25;;;;;;;-144.47;100.00;61586.06;6154267;23;20346;-75
2022/04/18 03:31:40;;;;;;;4.28;2.30;;;;;;;-144.47;100.00;61586.06;6181150;23;20279;-75
2022/04/18 03:34:07;;;;;;;3.17;2.55;;;;;;;-144.47;100.00;61586.06;6130032;23;20438;-73
2022/04/18 03:42:02;;;;;;;5.45;2.70;;;;;;;-144.47;100.00;61586.06;6179045;23;20015;-74
2022/04/18 03:44:28;;;;;;;5.47;2.95;;;;;;;-144.47;100.00;61586.06;6154296;23;20001;-75
2022/04/18 03:46:53;;;;;;;2.58;2.38;;;;;;;-144.47;100.00;61586.06;6154577;23;20053;-75
2022/04/18 03:49:20;;;;;;;4.07;2.80;;;;;;;-144.47;100.00;61586.06;6153786;23;20013;-75
2022/04/18 03:51:48;;;;;;;4.72;2.35;;;;;;;-144.47;100.00;61586.06;6153622;23;20011;-75
2022/04/18 03:54:14;;;;;;;4.68;2.17;;;;;;;-144.47;100.00;61586.06;6153983;23;20080;-75
2022/04/18 03:56:41;;;;;;;5.03;2.80;;;;;;;-144.47;100.00;61586.06;6153893;23;20009;-75
2022/04/18 03:59:09;;;;;;;2.80;2.40;;;;;;;-144.47;100.00;61586.06;6181081;23;20114;-75
2022/04/18 04:01:55;;;;;;;6.38;2.50;;;;;;;-144.47;100.00;61586.06;6154444;23;20020;-74
2022/04/18 04:04:21;;;;;;;5.68;3.35;;;;;;;-144.47;100.00;61586.06;6154014;23;20434;-74
2022/04/18 04:06:47;;;;;;;2.67;2.40;;;;;;;-144.47;100.00;61586.06;6153894;23;20252;-74
2022/04/18 04:09:13;;;;;;;3.75;2.30;;;;;;;-144.47;100.00;61586.06;6153953;23;20032;-75
2022/04/18 04:11:38;;;;;;;5.15;3.65;;;;;;;-144.47;100.00;61586.06;6154027;23;20020;-75
2022/04/18 04:14:04;;;;;;;3.63;2.67;;;;;;;-144.47;100.00;61586.06;6154197;23;20040;-75
2022/04/18 04:16:30;;;;;;;3.83;2.80;;;;;;;-144.47;100.00;61586.06;6153818;23;20009;-75
2022/04/18 04:18:56;;;;;;;3.75;3.13;;;;;;;-144.47;100.00;61586.06;6154370;23;20422;-75
2022/04/18 04:21:22;;;;;;;7.93;3.00;;;;;;;-144.47;100.00;61586.06;6180105;23;20059;-75
2022/04/18 04:23:49;;;;;;;4.25;2.95;;;;;;;-144.47;100.00;61586.06;6153980;23;20021;-75
2022/04/18 04:26:24;;;;;;;6.28;2.92;;;;;;;-144.47;100.00;61586.06;6189786;23;20005;-75
2022/04/18 04:28:50;;;;;;;6.55;3.20;;;;;;;-144.47;100.00;61586.06;6154168;23;20044;-75
2022/04/18 04:31:24;;;;;;;5.18;2.97;;;;;;;-144.47;100.00;61586.06;6153798;23;20550;-74
2022/04/18 04:33:50;;;;;;;7.00;2.85;;;;;;;-144.47;100.00;61586.06;6154177;23;20109;-75
2022/04/18 04:36:18;;;;;;;2.83;2.63;;;;;;;-144.47;100.00;61586.06;6180190;23;20012;-74
2022/04/18 04:38:45;;;;;;;5.65;3.53;;;;;;;-144.47;100.00;61586.06;6153714;23;20143;-74
2022/04/18 04:41:22;;;;;;;4.03;2.88;;;;;;;-144.47;100.00;61586.06;6153413;23;20009;-76
2022/04/18 04:43:53;;;;;;;4.43;2.72;;;;;;;-144.47;100.00;61586.06;6154056;23;20026;-75
2022/04/18 04:46:26;;;;;;;3.28;2.80;;;;;;;-144.47;100.00;61586.06;6153472;23;20418;-74
2022/04/18 04:49:00;;;;;;;3.40;2.92;;;;;;;-144.47;100.00;61586.06;6153933;23;20075;-75
2022/04/18 04:51:25;;;;;;;4.45;2.90;;;;;;;-144.47;100.00;61586.06;6153455;23;20017;-74
2022/04/18 04:53:51;;;;;;;3.38;2.90;;;;;;;-144.47;100.00;61586.06;6153445;23;20441;-75
2022/04/18 04:56:28;;;;;;;5.80;3.20;;;;;;;-144.47;100.00;61586.06;6153101;23;20008;-75
2022/04/18 04:58:55;;;;;;;4.05;2.90;;;;;;;-144.47;100.00;61586.06;6153813;23;20334;-75
2022/04/18 05:01:22;;;;;;;3.40;2.80;;;;;;;-144.47;100.00;61586.06;6153798;23;20342;-75
2022/04/18 05:03:52;;;;;;;4.97;3.10;;;;;;;-144.47;100.00;61586.06;6156131;23;20009;-75
2022/04/18 05:06:18;;;;;;;3.55;2.90;;;;;;;-144.47;100.00;61586.06;6155597;23;20023;-75
2022/04/18 05:08:46;;;;;;;6.05;3.30;;;;;;;-144.47;100.00;61586.06;6155800;23;20072;-76
2022/04/18 05:11:14;;;;;;;6.38;3.30;;;;;;;-144.47;100.00;61586.06;6155040;23;20013;-75
2022/04/18 05:13:47;;;;;;;5.72;2.92;;;;;;;-144.47;100.00;61586.06;6155725;23;20008;-76
2022/04/18 05:16:15;;;;;;;4.47;2.88;;;;;;;-144.47;100.00;61586.06;6155319;23;20477;-76
2022/04/18 05:18:46;;;;;;;;;;;;;;;-144.47;100.00;61586.06;6156244;23;20032;-74
2022/04/18 05:21:11;;;;;;;3.53;3.15;;;;;;;-144.47;100.00;61586.06;6182209;23;19912;-73
2022/04/18 05:23:38;;;;;;;7.68;3.35;;;;;;;-144.47;100.00;61586.06;6157840;23;20009;-75
2022/04/18 05:26:03;;;;;;;5.13;2.85;;;;;;;-144.47;100.00;61586.06;6157021;23;20498;-75
2022/04/18 05:28:29;;;;;;;4.45;3.25;;;;;;;-144.47;100.00;61586.06;6155518;23;20062;-75
2022/04/18 05:30:59;;;;;;;5.60;3.03;;;;;;;-144.47;100.00;61586.06;6155505;23;20013;-78
2022/04/18 05:33:25;;;;;;;4.03;3.20;;;;;;;-144.47;100.00;61586.06;6179946;23;20016;-73
2022/04/18 05:36:10;;;;;;;4.95;2.88;;;;;;;-144.47;100.00;61586.06;6182083;23;20027;-75
2022/04/18 05:38:36;;;;;;;13.82;3.90;;;;;;;-144.47;100.00;61586.06;6131306;23;20013;-75
2022/04/18 05:41:09;;;;;;;4.13;3.08;;;;;;;-144.47;100.00;61586.06;6154682;23;20044;-74
2022/04/18 05:43:35;;;;;;;3.83;3.20;;;;;;;-144.47;100.00;61586.06;6155590;23;20017;-75
2022/04/18 05:46:01;;;;;;;4.68;3.10;;;;;;;-144.47;100.00;61586.06;6155709;23;20379;-75
2022/04/18 05:48:26;;;;;;;4.57;3.10;;;;;;;-144.47;100.00;61586.06;6155424;23;20016;-76
2022/04/18 05:50:55;;;;;;;7.05;3.80;;;;;;;-144.47;100.00;61586.06;6155756;23;20009;-75
2022/04/18 05:53:28;;;;;;;4.93;3.28;;;;;;;-144.47;100.00;61586.06;6155249;23;20075;-75
2022/04/18 05:56:03;;;;;;;4.30;3.00;;;;;;;-144.47;100.00;61586.06;6191737;23;20021;-75
2022/04/18 05:58:36;;;;;;;3.45;3.00;;;;;;;-144.47;100.00;61586.06;6155202;23;20079;-73
2022/04/18 06:01:10;;;;;;;3.92;3.50;;;;;;;-144.47;100.00;61586.06;6155252;23;20013;-73
2022/04/18 06:03:35;;;;;;;3.30;3.00;;;;;;;-144.47;100.00;61586.06;6155661;23;20119;-75
2022/04/18 06:06:01;;;;;;;7.45;3.50;;;;;;;-144.47;100.00;61586.06;6155738;23;20592;-75
2022/04/18 06:08:26;;;;;;;5.63;3.20;;;;;;;-144.47;100.00;61586.06;6155237;23;20518;-75
2022/04/18 06:10:59;;;;;;;7.78;3.45;;;;;;;-144.47;100.00;61586.06;6155198;23;20009;-75
2022/04/18 06:13:43;;;;;;;4.68;3.42;;;;;;;-144.47;100.00;61586.06;6154725;23;20028;-74
2022/04/18 06:16:09;;;;;;;4.40;3.15;;;;;;;-144.47;100.00;61586.06;6155220;23;20020;-75
2022/04/18 06:18:35;;;;;;;4.45;3.22;;;;;;;-144.47;100.00;61586.06;6155275;23;20009;-75
2022/04/18 06:21:06;;;;;;;9.00;3.72;;;;;;;-144.47;100.00;61586.06;6155540;23;20391;-75
2022/04/18 06:23:32;;;;;;;4.00;3.40;;;;;;;-144.47;100.00;61586.06;6155267;23;20016;-75
2022/04/18 06:26:23;;;;;;;4.00;3.28;;;;;;;-144.47;100.00;61586.06;6180512;23;20005;-74
2022/04/18 06:28:51;;;;;;;4.53;3.15;;;;;;;-144.47;100.00;61586.06;6155628;23;20013;-75
2022/04/18 06:31:17;;;;;;;4.15;3.30;;;;;;;-144.47;100.00;61586.06;6154637;23;20005;-75
2022/04/18 06:33:52;;;;;;;7.70;3.70;;;;;;;-144.47;100.00;61586.06;6155304;23;20349;-74
2022/04/18 06:36:17;;;;;;;4.45;3.70;;;;;;;-144.47;100.00;61586.06;6155121;23;20009;-75
2022/04/18 06:38:52;;;;;;;5.15;3.38;;;;;;;-144.47;100.00;61586.06;6155649;23;20020;-75
2022/04/18 06:41:27;;;;;;;7.57;3.55;;;;;;;-144.47;100.00;61586.06;6154934;23;20626;-75
2022/04/18 06:43:53;;;;;;;4.50;3.90;;;;;;;-144.47;100.00;61586.06;6154795;23;20025;-76
2022/04/18 06:46:19;;;;;;;7.60;3.78;;;;;;;-144.47;100.00;61586.06;6181040;23;20009;-75
2022/04/18 06:48:44;;;;;;;4.30;3.90;;;;;;;-144.47;100.00;61586.06;6155173;23;20016;-75
2022/04/18 06:51:32;;;;;;;4.03;3.63;;;;;;;-144.47;100.00;61586.06;6181193;23;20056;-74
2022/04/18 06:54:01;;;;;;;3.85;3.55;;;;;;;-144.47;100.00;61586.06;6182156;23;20052;-76
2022/04/18 06:57:00;;;;;;;4.10;3.72;;;;;;;-144.47;100.00;61586.06;6181454;23;20028;-74
2022/04/18 06:59:35;;;;;;;5.97;4.17;;;;;;;-144.47;100.00;61586.06;6179999;23;20009;-76
2022/04/18 07:02:00;;;;;;;4.22;3.88;;;;;;;-144.47;100.00;61586.06;6155105;23;20255;-75
2022/04/18 07:04:27;;;;;;;5.40;4.70;;;;;;;-144.47;100.00;61586.06;6155075;23;20037;-75
2022/04/18 07:06:53;;;;;;;11.65;4.65;;;;;;;-144.47;100.00;61586.06;6155118;23;20013;-77
2022/04/18 07:09:20;;;;;;;4.88;4.00;;;;;;;-144.47;100.00;61586.06;6154690;23;20083;-77
2022/04/18 07:11:58;;;;;;;5.97;3.92;;;;;;;-144.47;100.00;61586.06;6154994;23;20264;-77
2022/04/18 07:14:25;;;;;;;7.53;4.18;;;;;;;-144.47;100.00;61586.06;6154718;23;20013;-78
2022/04/18 07:16:53;;;;;;;5.20;4.70;;;;;;;-144.47;100.00;61586.06;6155506;23;20020;-77
2022/04/18 07:19:23;;;;;;;6.28;3.75;;;;;;;-144.47;100.00;61586.06;6155142;23;20461;-76
2022/04/18 07:21:49;;;;;;;4.43;4.13;;;;;;;-144.47;100.00;61586.06;6131254;23;20009;-76
2022/04/18 07:24:16;;;;;;;5.78;4.70;;;;;;;-144.47;100.00;61586.06;6155087;23;20075;-76
2022/04/18 07:26:44;;;;;;;4.80;4.35;;;;;;;-144.47;100.00;61586.06;6155260;23;20124;-76
2022/04/18 07:29:13;;;;;;;10.13;4.15;;;;;;;-144.47;100.00;61586.06;6181415;23;20086;-77
2022/04/18 07:31:40;;;;;;;;;;;;;;;-144.47;100.00;61586.06;6155351;23;20071;-76
2022/04/18 07:34:06;;;;;;;4.80;4.20;;;;;;;-144.47;100.00;61586.06;6155185;23;19958;-76
2022/04/18 07:36:32;;;;;;;4.55;4.15;;;;;;;-144.47;100.00;61586.06;6155237;23;20077;-75
2022/04/18 07:38:58;;;;;;;7.53;4.22;;;;;;;-144.47;100.00;61586.06;6154980;23;20005;-77
2022/04/18 07:41:30;;;;;;;6.63;4.47;;;;;;;-144.47;100.00;61586.06;6155069;23;20032;-76
2022/04/18 07:44:01;;;;;;;6.22;4.13;;;;;;;-144.47;100.00;61586.06;6155412;23;20453;-77
2022/04/18 07:46:28;;;;;;;4.85;3.70;;;;;;;-144.47;100.00;61586.06;6153641;23;20338;-77
2022/04/18 07:48:54;;;;;;;5.32;3.78;;;;;;;-144.47;100.00;61586.06;6154217;23;20012;-77
2022/04/18 07:51:34;;;;;;;5.10;3.50;;;;;;;-144.47;100.00;61586.06;6154198;23;20009;-77
2022/04/18 07:54:03;;;;;;;5.28;3.92;;;;;;;-144.47;100.00;61586.06;6130246;23;20031;-78
2022/04/18 07:56:30;;;;;;;5.00;3.88;;;;;;;-144.47;100.00;61586.06;6180665;23;20016;-77
2022/04/18 07:58:56;;;;;;;7.75;3.63;;;;;;;-144.47;100.00;61586.06;6179267;23;20001;-77
2022/04/18 08:01:30;;;;;;;6.00;3.45;;;;;;;-144.47;100.00;61586.06;6153835;23;20196;-77
2022/04/18 08:03:57;;;;;;;4.47;3.78;;;;;;;-144.47;100.00;61586.06;6158304;23;20397;-77
2022/04/18 08:06:22;;;;;;;4.00;3.30;;;;;;;-144.47;100.00;61586.06;6155133;23;20505;-77
2022/04/18 08:09:06;;;;;;;6.88;3.55;;;;;;;-144.47;100.00;61586.06;6154596;23;20009;-77
2022/04/18 08:11:32;;;;;;;4.30;3.55;;;;;;;-144.47;100.00;61586.06;6154204;23;20017;-77
2022/04/18 08:13:59;;;;;;;4.75;3.80;;;;;;;-144.47;100.00;61586.06;6154881;23;20092;-78
2022/04/18 08:16:47;;;;;;;5.88;3.85;;;;;;;-144.47;100.00;61586.06;6154795;23;20308;-78
2022/04/18 08:19:23;;;;;;;5.43;3.78;;;;;;;-144.47;100.00;61586.06;6154626;23;20032;-77
2022/04/18 08:21:49;;;;;;;4.80;3.33;;;;;;;-144.47;100.00;61586.06;6155048;23;20051;-77
2022/04/18 08:24:15;;;;;;;5.00;3.53;;;;;;;-144.47;100.00;61586.06;6181230;23;20067;-76
2022/04/18 08:27:00;;;;;;;4.18;3.75;;;;;;;-144.47;100.00;61586.06;6159467;23;20445;-77
2022/04/18 08:29:31;;;;;;;4.28;3.75;;;;;;;-144.47;100.00;61586.06;6154894;23;20013;-76
2022/04/18 08:32:14;;;;;;;8.13;4.25;;;;;;;-144.47;100.00;61586.06;6154468;23;20009;-77
2022/04/18 08:34:40;;;;;;;5.72;4.18;;;;;;;-144.47;100.00;61586.06;6154938;23;20016;-77
2022/04/18 08:37:09;;;;;;;8.68;4.20;;;;;;;-144.47;100.00;61586.06;6154891;23;20001;-77
2022/04/18 08:39:57;;;;;;;6.88;4.22;;;;;;;-144.47;100.00;61586.06;6171762;23;20497;-78
2022/04/18 08:42:25;;;;;;;5.63;4.40;;;;;;;-144.47;100.00;61586.06;6155729;23;20019;-76
2022/04/18 08:44:52;;;;;;;5.78;4.10;;;;;;;-144.47;100.00;61586.06;6156758;23;20013;-77
2022/04/18 08:52:50;;;;;;;6.22;3.63;;;;;;;-144.47;100.00;61586.06;6184064;23;20009;-78
2022/04/18 08:55:33;;;;;;;5.93;3.65;;;;;;;-144.47;100.00;61586.06;6163745;23;20013;-77
2022/04/18 08:58:06;;;;;;;4.90;3.55;;;;;;;-144.47;100.00;61586.06;6158672;23;20001;-77
2022/04/18 09:00:35;;;;;;;5.63;3.42;;;;;;;-144.47;100.00;61586.06;6156460;23;20013;-77
2022/04/18 09:03:20;;;;;;;3.58;3.33;;;;;;;-144.47;100.00;61586.06;6182400;23;20032;-76
2022/04/18 09:06:11;;;;;;;5.63;3.47;;;;;;;-144.47;100.00;61586.06;6156332;23;20013;-77
2022/04/18 09:08:47;;;;;;;3.50;3.17;;;;;;;-144.47;100.00;61586.06;6156617;23;20012;-77
2022/04/18 09:11:28;;;;;;;4.05;3.65;;;;;;;-144.47;100.00;61586.06;6156290;23;20011;-78
2022/04/18 09:14:02;;;;;;;4.20;3.60;;;;;;;-144.47;100.00;61586.06;6156782;23;20084;-77
2022/04/18 09:16:29;;;;;;;5.60;3.50;;;;;;;-144.47;100.00;61586.06;6183156;23;20087;-77
2022/04/18 09:19:12;;;;;;;5.15;3.65;;;;;;;-144.47;100.00;61586.06;6183005;23;20013;-77
2022/04/18 09:21:56;;;;;;;6.18;3.53;;;;;;;-144.47;100.00;61586.06;6132874;23;20032;-77
2022/04/18 09:24:33;;;;;;;5.60;3.13;;;;;;;-144.47;100.00;61586.06;6156214;23;20080;-78
2022/04/18 09:27:29;;;;;;;5.70;3.42;;;;;;;-144.47;100.00;61586.06;6156331;23;20005;-78
2022/04/18 09:30:17;;;;;;;5.45;3.60;;;;;;;-144.47;100.00;61586.06;6155476;23;20461;-78
2022/04/18 09:33:01;;;;;;;5.45;2.80;;;;;;;-144.47;100.00;61586.06;6156516;23;20017;-77
2022/04/18 09:35:33;;;;;;;3.92;2.90;;;;;;;-144.47;100.00;61586.06;6182319;23;20022;-76
2022/04/18 09:38:08;;;;;;;3.50;2.92;;;;;;;-144.47;100.00;61586.06;6157552;23;20005;-79
2022/04/18 09:40:52;;;;;;;6.40;3.40;;;;;;;-144.47;100.00;61586.06;6183891;23;20035;-77
2022/04/18 09:43:46;;;;;;;5.32;3.50;;;;;;;-144.47;100.00;61586.06;6182053;23;20021;-77
2022/04/18 09:46:16;;;;;;;6.15;3.78;;;;;;;-144.47;100.00;61586.06;6155998;23;20107;-76
2022/04/18 09:48:49;;;;;;;6.00;3.65;;;;;;;-144.47;100.00;61586.06;6156065;23;20012;-77
2022/04/18 09:51:23;;;;;;;6.53;3.25;;;;;;;-144.47;100.00;61586.06;6155794;23;20351;-77
2022/04/18 09:54:07;;;;;;;4.00;3.60;;;;;;;-144.47;100.00;61586.06;6156523;23;20017;-78
2022/04/18 09:56:33;;;;;;;3.38;3.08;;;;;;;-144.47;100.00;61586.06;6182897;23;20370;-77
2022/04/18 09:58:58;;;;;;;4.47;3.22;;;;;;;-144.47;100.00;61586.06;6183034;23;20001;-77
2022/04/18 10:01:24;;;;;;;3.55;3.17;;;;;;;-144.47;100.00;61586.06;6182477;23;20107;-78
2022/04/18 10:03:52;;;;;;;4.38;3.13;;;;;;;-144.47;100.00;61586.06;6182780;23;20350;-78
2022/04/18 10:06:20;;;;;;;4.03;3.17;;;;;;;-144.47;100.00;61586.06;6182568;23;20005;-76
2022/04/18 10:08:45;;;;;;;4.47;3.80;;;;;;;-144.47;100.00;61586.06;6183661;23;20001;-76
2022/04/18 10:11:11;;;;;;;5.30;3.00;;;;;;;-144.47;100.00;61586.06;6184892;23;20009;-78
2022/04/18 10:13:37;;;;;;;3.90;3.13;;;;;;;-144.47;100.00;61586.06;6182872;23;20017;-77
2022/04/18 10:16:05;;;;;;;4.35;3.40;;;;;;;-144.47;100.00;61586.06;6155579;23;20341;-77
2022/04/18 10:18:37;;;;;;;4.90;3.30;;;;;;;-144.47;100.00;61586.06;6182229;23;20012;-77
2022/04/18 10:21:21;;;;;;;4.90;2.95;;;;;;;-144.47;100.00;61586.06;6156108;23;20013;-77
2022/04/18 10:23:53;;;;;;;3.40;3.10;;;;;;;-144.47;100.00;61586.06;6182061;23;20048;-78
2022/04/18 10:26:50;;;;;;;4.53;3.08;;;;;;;-144.47;100.00;61586.06;6181625;23;20016;-78
2022/04/18 10:29:30;;;;;;;8.98;3.88;;;;;;;-144.47;100.00;61586.06;6181707;23;20017;-77
2022/04/18 10:31:59;;;;;;;4.13;3.08;;;;;;;-144.47;100.00;61586.06;6182695;23;20478;-78
2022/04/18 10:34:31;;;;;;;6.18;3.33;;;;;;;-144.47;100.00;61586.06;6182440;23;20374;-77
2022/04/18 10:36:59;;;;;;;6.30;2.90;;;;;;;-144.47;100.00;61586.06;6182335;23;20453;-77
2022/04/18 10:39:35;;;;;;;5.97;3.38;;;;;;;-144.47;100.00;61586.06;6181599;23;20465;-78
2022/04/18 10:42:31;;;;;;;4.97;3.80;;;;;;;-144.47;100.00;61586.06;6182685;23;20017;-78
2022/04/18 10:45:10;;;;;;;5.97;3.70;;;;;;;-144.47;100.00;61586.06;6180052;23;20012;-78
2022/04/18 10:47:54;;;;;;;5.78;3.63;;;;;;;-144.47;100.00;61586.06;6182322;23;20036;-78
2022/04/18 10:50:21;;;;;;;6.10;3.33;;;;;;;-144.47;100.00;61586.06;6181954;23;20013;-78
2022/04/18 10:53:08;;;;;;;6.15;3.65;;;;;;;-144.47;100.00;61586.06;6182128;23;20020;-78
2022/04/18 10:55:33;;;;;;;4.68;3.17;;;;;;;-144.47;100.00;61586.06;6181789;23;20084;-78
2022/04/18 10:58:21;;;;;;;8.02;3.60;;;;;;;-144.47;100.00;61586.06;6182266;23;20326;-77
2022/04/18 11:00:52;;;;;;;5.53;2.97;;;;;;;-144.47;100.00;61586.06;6181645;23;20075;-78
2022/04/18 11:03:35;;;;;;;;;;;;;;;-144.47;100.00;61586.06;6182643;23;20381;-77
2022/04/18 11:06:02;;;;;;;7.57;3.28;;;;;;;-144.47;100.00;61586.06;6182636;23;20187;-77
2022/04/18 11:08:29;;;;;;;4.97;3.58;;;;;;;-144.47;100.00;61586.06;6181655;23;20017;-77
2022/04/18 11:11:06;;;;;;;7.00;3.67;;;;;;;-144.47;100.00;61586.06;6181875;23;20001;-79
2022/04/18 11:13:33;;;;;;;5.03;3.55;;;;;;;-144.47;100.00;61586.06;6181821;23;20059;-77
2022/04/18 11:16:23;;;;;;;6.43;3.55;;;;;;;-144.47;100.00;61586.06;6181970;23;20084;-77
2022/04/18 11:19:28;;;;;;;3.85;3.22;;;;;;;-144.47;100.00;61586.06;6182231;23;20017;-79
2022/04/18 11:24:40;;;;;;;5.85;3.47;;;;;;;-144.47;100.00;61586.06;6090291;23;20014;-78
2022/04/18 11:27:26;;;;;;;6.18;4.10;;;;;;;-144.47;100.00;61586.06;6090453;23;20193;-77
2022/04/18 11:30:09;;;;;;;9.50;4.18;;;;;;;-144.47;100.00;61586.06;6080380;23;20471;-77
2022/04/18 11:32:37;;;;;;;4.90;4.22;;;;;;;-144.47;100.00;61586.06;6090486;23;20018;-78
2022/04/18 11:35:07;;;;;;;6.00;4.32;;;;;;;-144.47;100.00;61586.06;6090819;23;20022;-78
2022/04/18 11:37:43;;;;;;;6.88;4.65;;;;;;;-144.47;100.00;61586.06;6090608;23;20101;-78
2022/04/18 11:40:16;;;;;;;6.88;4.47;;;;;;;-144.47;100.00;61586.06;6066415;23;20014;-77
2022/04/18 11:42:42;;;;;;;5.88;3.90;;;;;;;-144.47;100.00;61586.06;6090663;23;20058;-78
2022/04/18 11:45:22;;;;;;;7.13;4.45;;;;;;;-144.47;100.00;61586.06;6090595;23;20139;-77
2022/04/18 11:47:47;;;;;;;7.95;4.78;;;;;;;-144.47;100.00;61586.06;6091233;23;20139;-78